createdAt,value
2022-12-25T00:00:16.609Z,19.40
2022-12-25T00:02:47.005Z,19.41
2022-12-25T00:05:15.612Z,19.41
2022-12-25T00:07:44.135Z,19.41
2022-12-25T00:10:14.149Z,19.40
2022-12-25T00:12:42.633Z,19.41
2022-12-25T00:15:11.528Z,19.40
2022-12-25T00:17:40.037Z,19.42
2022-12-25T00:20:09.887Z,19.41
2022-12-25T00:22:38.342Z,19.42
2022-12-25T00:25:07.064Z,19.43
2022-12-25T00:27:37.727Z,19.43
2022-12-25T00:30:08.016Z,19.43
2022-12-25T00:32:37.265Z,19.43
2022-12-25T00:35:06.709Z,19.43
2022-12-25T00:37:35.215Z,19.44
2022-12-25T00:40:03.877Z,19.43
2022-12-25T00:42:32.329Z,19.43
2022-12-25T00:45:02.441Z,19.43
2022-12-25T00:47:31.055Z,19.43
2022-12-25T00:49:59.508Z,19.44
2022-12-25T00:52:27.942Z,19.43
2022-12-25T00:54:56.401Z,19.43
2022-12-25T00:57:24.925Z,19.44
2022-12-25T00:59:53.392Z,19.43
2022-12-25T01:02:26.194Z,19.44
2022-12-25T01:04:56.395Z,19.45
2022-12-25T01:07:26.496Z,19.44
2022-12-25T01:10:17.578Z,19.44
2022-12-25T01:12:46.045Z,19.44
2022-12-25T01:15:14.983Z,19.44
2022-12-25T01:17:45.578Z,19.43
2022-12-25T01:20:16.257Z,19.44
2022-12-25T01:22:44.905Z,19.44
2022-12-25T01:25:14.122Z,19.44
2022-12-25T01:27:43.422Z,19.44
2022-12-25T01:30:12.820Z,19.43
2022-12-25T01:32:41.297Z,19.44
2022-12-25T01:35:11.996Z,19.43
2022-12-25T01:37:40.792Z,19.43
2022-12-25T01:40:10.223Z,19.44
2022-12-25T01:42:38.913Z,19.44
2022-12-25T01:45:32.982Z,19.43
2022-12-25T01:48:04.494Z,19.43
2022-12-25T01:50:35.832Z,19.39
2022-12-25T01:53:05.096Z,19.44
2022-12-25T01:55:35.151Z,19.44
2022-12-25T01:58:04.009Z,19.44
2022-12-25T02:00:32.453Z,19.44
2022-12-25T02:03:01.114Z,19.43
2022-12-25T02:05:32.556Z,19.44
2022-12-25T02:08:08.055Z,19.44
2022-12-25T02:10:36.597Z,19.43
2022-12-25T02:13:05.274Z,19.44
2022-12-25T02:15:41.680Z,19.43
2022-12-25T02:18:16.178Z,19.42
2022-12-25T02:20:58.349Z,19.42
2022-12-25T02:23:55.805Z,19.40
2022-12-25T02:26:56.175Z,19.40
2022-12-25T02:29:34.025Z,19.42
2022-12-25T02:32:08.760Z,19.40
2022-12-25T02:34:45.161Z,19.39
2022-12-25T02:37:17.623Z,19.39
2022-12-25T02:39:59.897Z,19.39
2022-12-25T02:43:05.023Z,19.39
2022-12-25T02:45:57.117Z,19.40
2022-12-25T02:48:48.868Z,19.40
2022-12-25T02:51:38.598Z,19.39
2022-12-25T02:54:29.174Z,19.41
2022-12-25T02:57:17.683Z,19.39
2022-12-25T03:00:07.424Z,19.40
2022-12-25T03:03:00.789Z,19.38
2022-12-25T03:05:50.000Z,19.37
2022-12-25T03:08:22.537Z,19.37
2022-12-25T03:11:15.238Z,19.37
2022-12-25T03:13:47.258Z,19.37
2022-12-25T03:16:33.564Z,19.37
2022-12-25T03:19:23.946Z,19.37
2022-12-25T03:22:11.789Z,19.39
2022-12-25T03:24:57.987Z,19.39
2022-12-25T03:27:27.255Z,19.38
2022-12-25T03:30:13.283Z,19.38
2022-12-25T03:32:51.548Z,19.40
2022-12-25T03:35:30.029Z,19.39
2022-12-25T03:38:28.513Z,19.39
2022-12-25T03:41:18.554Z,19.39
2022-12-25T03:44:10.707Z,19.38
2022-12-25T03:47:05.435Z,19.39
2022-12-25T03:49:59.499Z,19.39
2022-12-25T03:52:48.444Z,19.39
2022-12-25T03:55:37.353Z,19.38
2022-12-25T03:58:23.490Z,19.40
2022-12-25T04:01:12.651Z,19.39
2022-12-25T04:03:58.782Z,19.40
2022-12-25T04:06:44.944Z,19.39
2022-12-25T04:09:32.156Z,19.40
2022-12-25T04:12:17.405Z,19.40
2022-12-25T04:15:06.299Z,19.40
2022-12-25T04:17:52.643Z,19.40
2022-12-25T04:20:38.527Z,19.41
2022-12-25T04:23:27.224Z,19.41
2022-12-25T04:26:16.542Z,19.41
2022-12-25T04:29:02.375Z,19.40
2022-12-25T04:31:44.724Z,19.40
2022-12-25T04:34:30.894Z,19.41
2022-12-25T04:36:59.333Z,19.40
2022-12-25T04:39:27.722Z,19.41
2022-12-25T04:41:58.514Z,19.41
2022-12-25T04:44:26.936Z,19.39
2022-12-25T04:46:55.346Z,19.41
2022-12-25T04:49:23.768Z,19.40
2022-12-25T04:51:52.092Z,19.41
2022-12-25T04:54:20.547Z,19.42
2022-12-25T04:56:48.958Z,19.40
2022-12-25T04:59:18.700Z,19.41
2022-12-25T05:01:47.189Z,19.41
2022-12-25T05:04:15.674Z,19.41
2022-12-25T05:06:44.121Z,19.41
2022-12-25T05:09:12.562Z,19.41
2022-12-25T05:11:40.996Z,19.40
2022-12-25T05:14:09.513Z,19.41
2022-12-25T05:16:39.569Z,19.40
2022-12-25T05:19:08.254Z,19.40
2022-12-25T05:21:36.683Z,19.40
2022-12-25T05:24:05.531Z,19.40
2022-12-25T05:26:33.925Z,19.40
2022-12-25T05:29:02.354Z,19.39
2022-12-25T05:31:30.880Z,19.40
2022-12-25T05:34:03.298Z,19.40
2022-12-25T05:36:31.647Z,19.41
2022-12-25T05:39:00.074Z,19.46
2022-12-25T05:41:34.017Z,19.53
2022-12-25T05:44:03.454Z,19.67
2022-12-25T05:46:31.895Z,19.82
2022-12-25T05:49:03.072Z,19.97
2022-12-25T05:51:31.572Z,20.05
2022-12-25T05:54:00.037Z,20.11
2022-12-25T05:56:28.586Z,20.15
2022-12-25T05:58:57.200Z,20.22
2022-12-25T06:01:28.276Z,20.29
2022-12-25T06:03:57.840Z,20.37
2022-12-25T06:06:27.759Z,20.43
2022-12-25T06:08:56.688Z,20.46
2022-12-25T06:11:25.329Z,20.45
2022-12-25T06:13:54.505Z,20.43
2022-12-25T06:16:22.980Z,20.40
2022-12-25T06:18:52.906Z,20.39
2022-12-25T06:21:21.317Z,20.37
2022-12-25T06:23:51.261Z,20.38
2022-12-25T06:26:20.899Z,20.42
2022-12-25T06:28:49.447Z,20.43
2022-12-25T06:31:19.975Z,20.41
2022-12-25T06:33:48.778Z,20.38
2022-12-25T06:36:19.202Z,20.35
2022-12-25T06:38:47.897Z,20.34
2022-12-25T06:41:19.131Z,20.31
2022-12-25T06:43:49.199Z,20.29
2022-12-25T06:46:18.258Z,20.26
2022-12-25T06:48:49.351Z,20.26
2022-12-25T06:51:18.999Z,20.23
2022-12-25T06:53:47.615Z,20.24
2022-12-25T06:56:19.393Z,20.24
2022-12-25T06:58:49.534Z,20.27
2022-12-25T07:01:21.650Z,20.30
2022-12-25T07:03:53.101Z,20.32
2022-12-25T07:06:21.672Z,20.30
2022-12-25T07:08:50.342Z,20.29
2022-12-25T07:11:20.971Z,20.27
2022-12-25T07:13:49.393Z,20.25
2022-12-25T07:16:18.213Z,20.24
2022-12-25T07:18:46.841Z,20.23
2022-12-25T07:21:17.371Z,20.22
2022-12-25T07:23:47.582Z,20.22
2022-12-25T07:26:17.321Z,20.21
2022-12-25T07:28:47.197Z,20.21
2022-12-25T07:31:17.733Z,20.19
2022-12-25T07:33:46.407Z,20.20
2022-12-25T07:36:16.202Z,20.19
2022-12-25T07:38:45.311Z,20.17
2022-12-25T07:41:15.227Z,20.14
2022-12-25T07:43:44.195Z,20.13
2022-12-25T07:46:14.049Z,20.11
2022-12-25T07:48:42.647Z,20.09
2022-12-25T07:51:13.336Z,20.07
2022-12-25T07:53:42.066Z,20.07
2022-12-25T07:56:13.936Z,20.07
2022-12-25T07:58:42.511Z,20.04
2022-12-25T08:01:16.595Z,20.04
2022-12-25T08:03:49.289Z,20.03
2022-12-25T08:06:17.917Z,20.02
2022-12-25T08:08:46.715Z,20.01
2022-12-25T08:11:15.535Z,20.00
2022-12-25T08:13:44.019Z,19.99
2022-12-25T08:16:13.862Z,19.97
2022-12-25T08:18:44.262Z,19.96
2022-12-25T08:21:14.515Z,19.93
2022-12-25T08:23:45.303Z,19.92
2022-12-25T08:26:16.291Z,19.91
2022-12-25T08:28:45.248Z,19.88
2022-12-25T08:31:18.065Z,19.86
2022-12-25T08:33:48.056Z,19.85
2022-12-25T08:36:17.387Z,19.83
2022-12-25T08:38:46.556Z,19.79
2022-12-25T08:41:16.076Z,19.78
2022-12-25T08:43:44.816Z,19.76
2022-12-25T08:46:15.022Z,19.76
2022-12-25T08:48:44.150Z,19.75
2022-12-25T08:51:15.447Z,19.74
2022-12-25T08:53:44.261Z,19.72
2022-12-25T08:56:13.387Z,19.70
2022-12-25T08:58:42.915Z,19.71
2022-12-25T09:01:12.011Z,19.70
2022-12-25T09:03:42.871Z,19.70
2022-12-25T09:06:15.917Z,19.69
2022-12-25T09:08:49.158Z,19.67
2022-12-25T09:11:19.573Z,19.67
2022-12-25T09:13:48.987Z,19.66
2022-12-25T09:16:20.484Z,19.66
2022-12-25T09:18:56.455Z,19.64
2022-12-25T09:21:25.407Z,19.64
2022-12-25T09:23:53.944Z,19.62
2022-12-25T09:26:22.367Z,19.62
2022-12-25T09:28:52.634Z,19.61
2022-12-25T09:31:22.736Z,19.57
2022-12-25T09:33:52.249Z,19.59
2022-12-25T09:36:23.237Z,19.60
2022-12-25T09:38:52.176Z,19.60
2022-12-25T09:41:28.142Z,19.59
2022-12-25T09:44:01.950Z,19.59
2022-12-25T09:46:37.864Z,19.59
2022-12-25T09:49:13.125Z,19.59
2022-12-25T09:51:45.659Z,19.57
2022-12-25T09:54:20.371Z,19.58
2022-12-25T09:56:49.348Z,19.57
2022-12-25T09:59:24.467Z,19.55
2022-12-25T10:02:15.923Z,19.56
2022-12-25T10:04:59.816Z,19.56
2022-12-25T10:07:41.691Z,19.56
2022-12-25T10:10:25.195Z,19.54
2022-12-25T10:13:03.795Z,19.55
2022-12-25T10:15:39.252Z,19.54
2022-12-25T10:18:36.044Z,19.53
2022-12-25T10:21:12.633Z,19.53
2022-12-25T10:23:46.911Z,19.52
2022-12-25T10:26:18.126Z,19.53
2022-12-25T10:28:52.387Z,19.52
2022-12-25T10:31:22.846Z,19.52
2022-12-25T10:33:53.301Z,19.52
2022-12-25T10:36:24.526Z,19.50
2022-12-25T10:38:54.850Z,19.52
2022-12-25T10:41:36.746Z,19.52
2022-12-25T10:44:14.449Z,19.52
2022-12-25T10:46:48.821Z,19.52
2022-12-25T10:49:20.746Z,19.52
2022-12-25T10:51:49.525Z,19.51
2022-12-25T10:54:23.896Z,19.50
2022-12-25T10:57:00.693Z,19.50
2022-12-25T10:59:31.513Z,19.50
2022-12-25T11:02:14.928Z,19.52
2022-12-25T11:04:43.936Z,19.52
2022-12-25T11:07:26.512Z,19.52
2022-12-25T11:10:04.850Z,19.50
2022-12-25T11:12:37.846Z,19.50
2022-12-25T11:15:08.706Z,19.49
2022-12-25T11:17:37.155Z,19.48
2022-12-25T11:20:20.672Z,19.48
2022-12-25T11:22:50.061Z,19.47
2022-12-25T11:25:24.362Z,19.45
2022-12-25T11:27:58.716Z,19.46
2022-12-25T11:30:28.629Z,19.46
2022-12-25T11:33:02.410Z,19.45
2022-12-25T11:35:36.583Z,19.45
2022-12-25T11:38:04.911Z,19.46
2022-12-25T11:40:41.466Z,19.44
2022-12-25T11:43:15.865Z,19.46
2022-12-25T11:45:49.519Z,19.44
2022-12-25T11:48:23.011Z,19.45
2022-12-25T11:50:55.318Z,19.45
2022-12-25T11:53:30.239Z,19.44
2022-12-25T11:56:04.363Z,19.42
2022-12-25T11:58:34.256Z,19.44
2022-12-25T12:01:06.014Z,19.44
2022-12-25T12:03:38.760Z,19.43
2022-12-25T12:06:16.180Z,19.43
2022-12-25T12:08:46.826Z,19.43
2022-12-25T12:11:22.655Z,19.43
2022-12-25T12:14:11.395Z,19.42
2022-12-25T12:16:40.090Z,19.17
2022-12-25T12:19:13.603Z,18.94
2022-12-25T12:21:44.144Z,18.72
2022-12-25T12:24:17.475Z,18.47
2022-12-25T12:27:00.465Z,18.31
2022-12-25T12:29:32.099Z,18.12
2022-12-25T12:32:03.617Z,18.11
2022-12-25T12:34:37.337Z,17.90
2022-12-25T12:37:24.504Z,17.89
2022-12-25T12:39:55.530Z,17.94
2022-12-25T12:42:28.715Z,18.06
2022-12-25T12:44:59.511Z,17.91
2022-12-25T12:47:31.518Z,17.90
2022-12-25T12:50:01.202Z,17.93
2022-12-25T12:52:33.346Z,17.92
2022-12-25T12:55:03.772Z,17.97
2022-12-25T12:57:39.209Z,17.95
2022-12-25T13:00:11.377Z,18.01
2022-12-25T13:03:04.196Z,18.09
2022-12-25T13:05:40.145Z,18.17
2022-12-25T13:08:24.325Z,18.24
2022-12-25T13:11:04.213Z,18.11
2022-12-25T13:13:37.821Z,18.11
2022-12-25T13:16:07.947Z,18.18
2022-12-25T13:18:36.573Z,18.17
2022-12-25T13:21:06.860Z,18.26
2022-12-25T13:23:36.862Z,18.34
2022-12-25T13:26:12.727Z,18.44
2022-12-25T13:28:42.795Z,18.53
2022-12-25T13:31:17.989Z,18.61
2022-12-25T13:33:48.429Z,18.67
2022-12-25T13:36:17.974Z,18.74
2022-12-25T13:38:47.606Z,18.77
2022-12-25T13:41:37.896Z,18.81
2022-12-25T13:44:25.714Z,18.86
2022-12-25T13:46:54.370Z,18.88
2022-12-25T13:49:24.727Z,18.92
2022-12-25T13:51:53.173Z,18.94
2022-12-25T13:54:21.643Z,18.97
2022-12-25T13:56:52.614Z,18.97
2022-12-25T13:59:24.037Z,19.00
2022-12-25T14:01:54.336Z,19.01
2022-12-25T14:04:25.509Z,19.02
2022-12-25T14:06:54.163Z,19.02
2022-12-25T14:09:23.391Z,19.05
2022-12-25T14:11:53.635Z,19.06
2022-12-25T14:14:26.722Z,19.07
2022-12-25T14:16:58.124Z,19.08
2022-12-25T14:19:29.416Z,19.09
2022-12-25T14:22:02.878Z,19.10
2022-12-25T14:24:34.944Z,19.10
2022-12-25T14:27:06.777Z,19.11
2022-12-25T14:29:40.998Z,19.12
2022-12-25T14:32:15.886Z,19.12
2022-12-25T14:34:46.284Z,19.14
2022-12-25T14:37:18.144Z,19.14
2022-12-25T14:39:54.777Z,19.13
2022-12-25T14:42:25.524Z,19.14
2022-12-25T14:45:01.724Z,19.14
2022-12-25T14:47:32.208Z,19.16
2022-12-25T14:50:00.737Z,19.16
2022-12-25T14:52:43.246Z,19.17
2022-12-25T14:55:21.201Z,19.16
2022-12-25T14:57:53.123Z,19.18
2022-12-25T15:00:25.382Z,19.17
2022-12-25T15:02:56.792Z,19.19
2022-12-25T15:05:36.569Z,19.18
2022-12-25T15:08:21.398Z,19.18
2022-12-25T15:11:00.510Z,19.19
2022-12-25T15:13:31.248Z,19.20
2022-12-25T15:16:07.327Z,19.20
2022-12-25T15:18:40.833Z,19.19
2022-12-25T15:21:16.470Z,19.20
2022-12-25T15:23:45.342Z,19.17
2022-12-25T15:26:14.765Z,19.20
2022-12-25T15:28:43.409Z,19.21
2022-12-25T15:31:21.955Z,19.19
2022-12-25T15:33:50.883Z,19.20
2022-12-25T15:36:19.409Z,19.20
2022-12-25T15:38:47.980Z,19.19
2022-12-25T15:41:33.713Z,19.20
2022-12-25T15:44:02.497Z,19.21
2022-12-25T15:46:32.892Z,19.21
2022-12-25T15:49:01.708Z,19.22
2022-12-25T15:51:30.227Z,19.22
2022-12-25T15:53:58.994Z,19.24
2022-12-25T15:56:28.100Z,19.22
2022-12-25T15:59:02.429Z,19.22
2022-12-25T16:01:32.430Z,19.23
2022-12-25T16:04:00.940Z,19.23
2022-12-25T16:06:29.394Z,19.25
2022-12-25T16:08:57.843Z,19.23
2022-12-25T16:11:26.301Z,19.25
2022-12-25T16:13:54.946Z,19.25
2022-12-25T16:16:23.876Z,19.26
2022-12-25T16:18:54.020Z,19.26
2022-12-25T16:21:23.206Z,19.25
2022-12-25T16:23:51.877Z,19.26
2022-12-25T16:26:20.427Z,19.26
2022-12-25T16:28:49.190Z,19.27
2022-12-25T16:31:17.898Z,19.27
2022-12-25T16:33:46.485Z,19.27
2022-12-25T16:36:20.670Z,19.28
2022-12-25T16:38:51.956Z,19.28
2022-12-25T16:41:20.443Z,19.29
2022-12-25T16:43:49.079Z,19.27
2022-12-25T16:46:19.695Z,19.27
2022-12-25T16:48:48.195Z,19.28
2022-12-25T16:51:20.754Z,19.28
2022-12-25T16:53:49.405Z,19.28
2022-12-25T16:56:21.132Z,19.27
2022-12-25T16:58:49.595Z,19.28
2022-12-25T17:01:20.066Z,19.28
2022-12-25T17:03:49.107Z,19.28
2022-12-25T17:06:22.914Z,19.28
2022-12-25T17:08:53.002Z,19.28
2022-12-25T17:11:26.122Z,19.29
2022-12-25T17:13:55.368Z,19.29
2022-12-25T17:16:26.178Z,19.27
2022-12-25T17:18:55.084Z,19.29
2022-12-25T17:21:26.306Z,19.28
2022-12-25T17:24:01.271Z,19.30
2022-12-25T17:26:31.510Z,19.29
2022-12-25T17:29:00.622Z,19.29
2022-12-25T17:31:29.875Z,19.29
2022-12-25T17:33:58.577Z,19.29
2022-12-25T17:36:28.413Z,19.30
2022-12-25T17:38:57.160Z,19.28
2022-12-25T17:41:25.630Z,19.29
2022-12-25T17:43:54.454Z,19.29
2022-12-25T17:46:25.525Z,19.30
2022-12-25T17:48:56.310Z,19.29
2022-12-25T17:51:27.185Z,19.29
2022-12-25T17:53:59.971Z,19.30
2022-12-25T17:56:29.095Z,19.29
2022-12-25T17:58:59.046Z,19.29
2022-12-25T18:01:29.573Z,19.30
2022-12-25T18:04:00.468Z,19.29
2022-12-25T18:06:30.102Z,19.29
2022-12-25T18:09:00.442Z,19.30
2022-12-25T18:11:33.007Z,19.29
2022-12-25T18:14:03.657Z,19.30
2022-12-25T18:16:33.750Z,19.29
2022-12-25T18:19:02.954Z,19.30
2022-12-25T18:21:31.709Z,19.30
2022-12-25T18:24:03.690Z,19.29
2022-12-25T18:26:32.714Z,19.29
2022-12-25T18:29:01.440Z,19.30
2022-12-25T18:31:31.098Z,19.30
2022-12-25T18:34:00.733Z,19.28
2022-12-25T18:36:30.695Z,19.29
2022-12-25T18:39:01.361Z,19.29
2022-12-25T18:41:30.583Z,19.29
2022-12-25T18:44:00.691Z,19.29
2022-12-25T18:46:29.582Z,19.30
2022-12-25T18:48:58.384Z,19.29
2022-12-25T18:51:33.122Z,19.29
2022-12-25T18:54:06.578Z,19.29
2022-12-25T18:56:35.013Z,19.28
2022-12-25T18:59:03.499Z,19.30
2022-12-25T19:01:32.038Z,19.29
2022-12-25T19:04:05.301Z,19.29
2022-12-25T19:06:34.698Z,19.27
2022-12-25T19:09:09.219Z,19.28
2022-12-25T19:11:46.176Z,19.30
2022-12-25T19:14:16.249Z,19.27
2022-12-25T19:16:44.990Z,19.29
2022-12-25T19:19:14.928Z,19.28
2022-12-25T19:21:43.330Z,19.29
2022-12-25T19:24:12.013Z,19.27
2022-12-25T19:26:43.665Z,19.29
2022-12-25T19:29:12.967Z,19.28
2022-12-25T19:31:42.136Z,19.29
2022-12-25T19:34:11.918Z,19.29
2022-12-25T19:36:40.570Z,19.29
2022-12-25T19:39:11.349Z,19.28
2022-12-25T19:41:41.098Z,19.29
2022-12-25T19:44:09.959Z,19.28
2022-12-25T19:46:41.431Z,19.29
2022-12-25T19:49:13.212Z,19.28
2022-12-25T19:51:44.040Z,19.29
2022-12-25T19:54:14.591Z,19.28
2022-12-25T19:56:44.378Z,19.29
2022-12-25T19:59:14.636Z,19.29
2022-12-25T20:01:43.457Z,19.28
2022-12-25T20:04:12.683Z,19.27
2022-12-25T20:06:42.624Z,19.26
2022-12-25T20:09:14.036Z,19.26
2022-12-25T20:11:44.511Z,19.28
2022-12-25T20:14:13.987Z,19.25
2022-12-25T20:16:44.122Z,19.26
2022-12-25T20:19:13.820Z,19.25
2022-12-25T20:21:42.907Z,19.25
2022-12-25T20:24:11.506Z,19.25
2022-12-25T20:26:40.316Z,19.25
2022-12-25T20:29:10.295Z,19.25
2022-12-25T20:31:39.611Z,19.25
2022-12-25T20:34:11.717Z,19.19
2022-12-25T20:36:40.371Z,19.26
2022-12-25T20:39:11.926Z,19.23
2022-12-25T20:41:40.906Z,19.25
2022-12-25T20:44:11.142Z,19.25
2022-12-25T20:46:39.744Z,19.24
2022-12-25T20:49:08.645Z,19.25
2022-12-25T20:51:37.152Z,19.25
2022-12-25T20:54:07.396Z,19.25
2022-12-25T20:56:36.598Z,19.25
2022-12-25T20:59:05.149Z,19.25
2022-12-25T21:01:35.117Z,19.25
2022-12-25T21:04:03.830Z,19.25
2022-12-25T21:06:32.586Z,19.25
2022-12-25T21:09:01.227Z,19.24
2022-12-25T21:11:31.304Z,19.25
2022-12-25T21:14:00.055Z,19.24
2022-12-25T21:16:28.969Z,19.25
2022-12-25T21:18:58.786Z,19.24
2022-12-25T21:21:27.293Z,19.24
2022-12-25T21:23:57.481Z,19.25
2022-12-25T21:26:28.144Z,19.24
2022-12-25T21:29:00.082Z,19.25
2022-12-25T21:31:29.679Z,19.25
2022-12-25T21:33:59.255Z,19.24
2022-12-25T21:36:30.291Z,19.24
2022-12-25T21:39:01.236Z,19.24
2022-12-25T21:41:32.246Z,19.23
2022-12-25T21:44:01.032Z,19.24
2022-12-25T21:46:30.152Z,19.23
2022-12-25T21:49:01.221Z,19.23
2022-12-25T21:51:48.880Z,19.22
2022-12-25T21:54:18.386Z,19.23
2022-12-25T21:56:48.508Z,19.22
2022-12-25T21:59:18.918Z,19.23
2022-12-25T22:01:48.428Z,19.23
2022-12-25T22:04:20.189Z,19.23
2022-12-25T22:07:06.592Z,19.23
2022-12-25T22:09:34.893Z,19.23
2022-12-25T22:12:21.718Z,19.23
2022-12-25T22:14:55.473Z,19.22
2022-12-25T22:17:44.170Z,19.22
2022-12-25T22:20:17.159Z,19.23
2022-12-25T22:22:46.265Z,19.22
2022-12-25T22:25:15.241Z,19.21
2022-12-25T22:27:45.516Z,19.23
2022-12-25T22:30:16.419Z,19.22
2022-12-25T22:32:46.309Z,19.22
2022-12-25T22:35:16.891Z,19.21
2022-12-25T22:37:45.885Z,19.22
2022-12-25T22:40:16.651Z,19.22
2022-12-25T22:42:45.283Z,19.22
2022-12-25T22:45:13.817Z,19.22
2022-12-25T22:47:42.399Z,19.21
2022-12-25T22:50:12.508Z,19.22
2022-12-25T22:52:45.629Z,19.20
2022-12-25T22:55:17.271Z,19.21
2022-12-25T22:57:45.735Z,19.20
2022-12-25T23:00:14.758Z,19.20
2022-12-25T23:02:43.431Z,19.19
2022-12-25T23:05:11.980Z,19.21
2022-12-25T23:07:41.920Z,19.21
2022-12-25T23:10:11.568Z,19.21
2022-12-25T23:12:57.953Z,19.21
2022-12-25T23:15:27.631Z,19.21
2022-12-25T23:18:13.983Z,19.21
2022-12-25T23:20:59.985Z,19.21
2022-12-25T23:23:47.347Z,19.19
2022-12-25T23:26:17.826Z,19.20
2022-12-25T23:29:04.315Z,19.20
2022-12-25T23:31:35.132Z,19.21
2022-12-25T23:34:04.731Z,19.20
2022-12-25T23:36:33.268Z,19.21
2022-12-25T23:39:09.421Z,19.19
2022-12-25T23:41:39.334Z,19.20
2022-12-25T23:44:08.182Z,19.20
2022-12-25T23:46:37.094Z,19.19
2022-12-25T23:49:06.056Z,19.19
2022-12-25T23:51:36.469Z,19.20
2022-12-25T23:54:06.697Z,19.17
2022-12-25T23:56:35.136Z,19.19
2022-12-25T23:59:04.260Z,19.20
